Terminal Aerodrome Forecast
Issued by NWS

Home | Current Version | Previous Version | Graphics & Text | Print | Product List | Glossary On
Versions: 1 2 3 4 5 6 7 8 9 10 11 12 13 14
896
FTUS43 KGRB 231136
TAFAUW
TAF
KAUW 231136Z 2312/2412 07005KT P6SM VCSH SCT025 OVC050
     FM231500 05005KT 5SM BR SCT012 OVC025
      TEMPO 2315/2319 2SM -RA BR BKN012
     FM231900 05007KT 5SM -SHRA BR OVC009
     FM240100 04008KT 6SM BR VCSH BKN015 OVC040=

USA.gov is the U.S. government's official web portal to all federal, state and local government web resources and services.